sensor_id;sensor_type;location;lat;lon;timestamp;temperature;humidity
24152;DHT22;12311;50.866;4.332;2023-06-01T00:02:21;15.60;99.90
24152;DHT22;12311;50.866;4.332;2023-06-01T00:04:47;15.60;99.90
24152;DHT22;12311;50.866;4.332;2023-06-01T00:07:15;15.50;99.90
24152;DHT22;12311;50.866;4.332;2023-06-01T00:09:41;15.50;99.90
24152;DHT22;12311;50.866;4.332;2023-06-01T00:12:09;15.50;99.90
24152;DHT22;12311;50.866;4.332;2023-06-01T00:14:35;15.40;99.90
24152;DHT22;12311;50.866;4.332;2023-06-01T00:17:01;15.40;99.90
24152;DHT22;12311;50.866;4.332;2023-06-01T00:19:31;15.40;99.90
24152;DHT22;12311;50.866;4.332;2023-06-01T00:21:56;15.30;99.90
24152;DHT22;12311;50.866;4.332;2023-06-01T00:24:23;15.30;99.90
24152;DHT22;12311;50.866;4.332;2023-06-01T00:26:48;15.10;99.90
24152;DHT22;12311;50.866;4.332;2023-06-01T00:29:14;15.10;99.90
24152;DHT22;12311;50.866;4.332;2023-06-01T00:31:41;15.10;99.90
24152;DHT22;12311;50.866;4.332;2023-06-01T00:34:06;15.10;99.90
24152;DHT22;12311;50.866;4.332;2023-06-01T00:36:33;15.10;99.90
24152;DHT22;12311;50.866;4.332;2023-06-01T00:38:58;15.10;99.90
24152;DHT22;12311;50.866;4.332;2023-06-01T00:41:28;15.00;99.90
24152;DHT22;12311;50.866;4.332;2023-06-01T00:43:54;14.90;99.90
24152;DHT22;12311;50.866;4.332;2023-06-01T00:46:20;14.80;99.90
24152;DHT22;12311;50.866;4.332;2023-06-01T00:48:46;14.80;99.90
24152;DHT22;12311;50.866;4.332;2023-06-01T00:51:12;14.80;99.90
24152;DHT22;12311;50.866;4.332;2023-06-01T00:53:41;14.80;99.90
24152;DHT22;12311;50.866;4.332;2023-06-01T00:56:07;14.70;99.90
24152;DHT22;12311;50.866;4.332;2023-06-01T00:58:34;14.80;99.90
24152;DHT22;12311;50.866;4.332;2023-06-01T01:00:59;14.70;99.90
24152;DHT22;12311;50.866;4.332;2023-06-01T01:03:27;14.60;99.90
24152;DHT22;12311;50.866;4.332;2023-06-01T01:11:34;14.60;99.90
24152;DHT22;12311;50.866;4.332;2023-06-01T01:22:34;14.50;99.90
24152;DHT22;12311;50.866;4.332;2023-06-01T01:28:20;14.30;99.90
24152;DHT22;12311;50.866;4.332;2023-06-01T01:30:48;14.30;99.90
24152;DHT22;12311;50.866;4.332;2023-06-01T01:33:17;14.30;99.90
24152;DHT22;12311;50.866;4.332;2023-06-01T01:35:43;14.20;99.90
24152;DHT22;12311;50.866;4.332;2023-06-01T01:38:09;14.20;99.90
24152;DHT22;12311;50.866;4.332;2023-06-01T01:40:35;14.10;99.90
24152;DHT22;12311;50.866;4.332;2023-06-01T01:43:01;14.20;99.90
24152;DHT22;12311;50.866;4.332;2023-06-01T01:45:27;14.10;99.90
24152;DHT22;12311;50.866;4.332;2023-06-01T01:48:03;14.10;99.90
24152;DHT22;12311;50.866;4.332;2023-06-01T01:50:37;14.00;99.90
24152;DHT22;12311;50.866;4.332;2023-06-01T01:53:05;14.00;99.90
24152;DHT22;12311;50.866;4.332;2023-06-01T01:55:33;13.90;99.90
24152;DHT22;12311;50.866;4.332;2023-06-01T01:58:00;13.90;99.90
24152;DHT22;12311;50.866;4.332;2023-06-01T02:00:27;13.80;99.90
24152;DHT22;12311;50.866;4.332;2023-06-01T02:02:54;13.80;99.90
24152;DHT22;12311;50.866;4.332;2023-06-01T02:05:20;13.80;99.90
24152;DHT22;12311;50.866;4.332;2023-06-01T02:07:46;13.70;99.90
24152;DHT22;12311;50.866;4.332;2023-06-01T02:10:11;13.70;99.90
24152;DHT22;12311;50.866;4.332;2023-06-01T02:12:37;13.70;99.90
24152;DHT22;12311;50.866;4.332;2023-06-01T02:15:04;13.70;99.90
24152;DHT22;12311;50.866;4.332;2023-06-01T02:17:30;13.60;99.90
24152;DHT22;12311;50.866;4.332;2023-06-01T02:19:55;13.60;99.90
24152;DHT22;12311;50.866;4.332;2023-06-01T02:22:21;13.60;99.90
24152;DHT22;12311;50.866;4.332;2023-06-01T02:24:47;13.60;99.90
24152;DHT22;12311;50.866;4.332;2023-06-01T02:27:12;13.60;99.90
24152;DHT22;12311;50.866;4.332;2023-06-01T02:29:38;13.50;99.90
24152;DHT22;12311;50.866;4.332;2023-06-01T02:32:04;13.50;99.90
24152;DHT22;12311;50.866;4.332;2023-06-01T02:34:30;13.40;99.90
24152;DHT22;12311;50.866;4.332;2023-06-01T02:36:56;13.40;99.90
24152;DHT22;12311;50.866;4.332;2023-06-01T02:39:23;13.50;99.90
24152;DHT22;12311;50.866;4.332;2023-06-01T02:41:49;13.50;99.90
24152;DHT22;12311;50.866;4.332;2023-06-01T02:44:15;13.40;99.90
24152;DHT22;12311;50.866;4.332;2023-06-01T02:46:40;13.30;99.90
24152;DHT22;12311;50.866;4.332;2023-06-01T02:49:06;13.30;99.90
24152;DHT22;12311;50.866;4.332;2023-06-01T02:51:31;13.20;99.90
24152;DHT22;12311;50.866;4.332;2023-06-01T02:53:59;13.20;99.90
24152;DHT22;12311;50.866;4.332;2023-06-01T02:56:24;13.10;99.90
24152;DHT22;12311;50.866;4.332;2023-06-01T02:58:50;13.10;99.90
24152;DHT22;12311;50.866;4.332;2023-06-01T03:01:16;13.00;99.90
24152;DHT22;12311;50.866;4.332;2023-06-01T03:03:42;13.00;99.90
24152;DHT22;12311;50.866;4.332;2023-06-01T03:06:08;13.00;99.90
24152;DHT22;12311;50.866;4.332;2023-06-01T03:08:34;13.00;99.90
24152;DHT22;12311;50.866;4.332;2023-06-01T03:11:00;12.90;99.90
24152;DHT22;12311;50.866;4.332;2023-06-01T03:13:26;12.90;99.90
24152;DHT22;12311;50.866;4.332;2023-06-01T03:15:52;12.80;99.90
24152;DHT22;12311;50.866;4.332;2023-06-01T03:18:17;12.80;99.90
24152;DHT22;12311;50.866;4.332;2023-06-01T03:20:43;12.70;99.90
24152;DHT22;12311;50.866;4.332;2023-06-01T03:23:09;12.80;99.90
24152;DHT22;12311;50.866;4.332;2023-06-01T03:25:34;12.80;99.90
24152;DHT22;12311;50.866;4.332;2023-06-01T03:28:00;12.70;99.90
24152;DHT22;12311;50.866;4.332;2023-06-01T03:30:26;12.70;99.90
24152;DHT22;12311;50.866;4.332;2023-06-01T03:32:51;12.60;99.90
24152;DHT22;12311;50.866;4.332;2023-06-01T03:35:17;12.60;99.90
24152;DHT22;12311;50.866;4.332;2023-06-01T03:37:45;12.50;99.90
24152;DHT22;12311;50.866;4.332;2023-06-01T03:40:11;12.50;99.90
24152;DHT22;12311;50.866;4.332;2023-06-01T03:42:40;12.60;99.90
24152;DHT22;12311;50.866;4.332;2023-06-01T03:45:07;12.50;99.90
24152;DHT22;12311;50.866;4.332;2023-06-01T03:47:33;12.50;99.90
24152;DHT22;12311;50.866;4.332;2023-06-01T03:49:59;12.50;99.90
24152;DHT22;12311;50.866;4.332;2023-06-01T03:52:26;12.50;99.90
24152;DHT22;12311;50.866;4.332;2023-06-01T03:54:52;12.40;99.90
24152;DHT22;12311;50.866;4.332;2023-06-01T03:57:18;12.40;99.90
24152;DHT22;12311;50.866;4.332;2023-06-01T03:59:44;12.40;99.90
24152;DHT22;12311;50.866;4.332;2023-06-01T04:02:09;12.50;99.90
24152;DHT22;12311;50.866;4.332;2023-06-01T04:04:36;12.50;99.90
24152;DHT22;12311;50.866;4.332;2023-06-01T04:07:02;12.40;99.90
24152;DHT22;12311;50.866;4.332;2023-06-01T04:09:32;12.40;99.90
24152;DHT22;12311;50.866;4.332;2023-06-01T04:11:57;12.40;99.90
24152;DHT22;12311;50.866;4.332;2023-06-01T04:14:23;12.30;99.90
24152;DHT22;12311;50.866;4.332;2023-06-01T04:16:49;12.40;99.90
24152;DHT22;12311;50.866;4.332;2023-06-01T04:19:15;12.40;99.90
24152;DHT22;12311;50.866;4.332;2023-06-01T04:21:40;12.50;99.90
24152;DHT22;12311;50.866;4.332;2023-06-01T04:24:06;12.50;99.90
24152;DHT22;12311;50.866;4.332;2023-06-01T04:26:32;12.50;99.90
24152;DHT22;12311;50.866;4.332;2023-06-01T04:28:58;12.40;99.90
24152;DHT22;12311;50.866;4.332;2023-06-01T04:31:24;12.40;99.90
24152;DHT22;12311;50.866;4.332;2023-06-01T04:33:50;12.50;99.90
24152;DHT22;12311;50.866;4.332;2023-06-01T04:36:22;12.50;99.90
24152;DHT22;12311;50.866;4.332;2023-06-01T04:38:51;12.60;99.90
24152;DHT22;12311;50.866;4.332;2023-06-01T04:41:20;12.50;99.90
24152;DHT22;12311;50.866;4.332;2023-06-01T04:43:48;12.50;99.90
24152;DHT22;12311;50.866;4.332;2023-06-01T04:46:22;12.60;99.90
24152;DHT22;12311;50.866;4.332;2023-06-01T04:48:52;12.50;99.90
24152;DHT22;12311;50.866;4.332;2023-06-01T04:51:19;12.50;99.90
24152;DHT22;12311;50.866;4.332;2023-06-01T04:53:48;12.50;99.90
24152;DHT22;12311;50.866;4.332;2023-06-01T04:56:18;12.60;99.90
24152;DHT22;12311;50.866;4.332;2023-06-01T04:58:45;12.60;99.90
24152;DHT22;12311;50.866;4.332;2023-06-01T05:01:13;12.70;99.90
24152;DHT22;12311;50.866;4.332;2023-06-01T05:03:41;12.80;99.90
24152;DHT22;12311;50.866;4.332;2023-06-01T05:06:07;12.70;99.90
24152;DHT22;12311;50.866;4.332;2023-06-01T05:08:32;12.90;99.90
24152;DHT22;12311;50.866;4.332;2023-06-01T05:10:59;13.00;99.90
24152;DHT22;12311;50.866;4.332;2023-06-01T05:13:24;13.00;99.90
24152;DHT22;12311;50.866;4.332;2023-06-01T05:15:50;13.00;99.90
24152;DHT22;12311;50.866;4.332;2023-06-01T05:18:16;13.10;99.90
24152;DHT22;12311;50.866;4.332;2023-06-01T05:20:41;13.00;99.90
24152;DHT22;12311;50.866;4.332;2023-06-01T05:23:07;13.00;99.90
24152;DHT22;12311;50.866;4.332;2023-06-01T05:25:33;13.00;99.90
24152;DHT22;12311;50.866;4.332;2023-06-01T05:27:58;13.00;99.90
24152;DHT22;12311;50.866;4.332;2023-06-01T05:30:24;12.90;99.90
24152;DHT22;12311;50.866;4.332;2023-06-01T05:32:50;13.00;99.90
24152;DHT22;12311;50.866;4.332;2023-06-01T05:35:16;13.10;99.90
24152;DHT22;12311;50.866;4.332;2023-06-01T05:37:42;13.00;99.90
24152;DHT22;12311;50.866;4.332;2023-06-01T05:40:08;13.00;99.90
24152;DHT22;12311;50.866;4.332;2023-06-01T05:42:34;12.80;99.90
24152;DHT22;12311;50.866;4.332;2023-06-01T05:45:00;13.00;99.90
24152;DHT22;12311;50.866;4.332;2023-06-01T05:47:25;13.20;99.90
24152;DHT22;12311;50.866;4.332;2023-06-01T05:49:51;13.30;99.90
24152;DHT22;12311;50.866;4.332;2023-06-01T05:52:17;13.30;99.90
24152;DHT22;12311;50.866;4.332;2023-06-01T05:54:42;13.20;99.90
24152;DHT22;12311;50.866;4.332;2023-06-01T05:57:08;13.10;99.90
24152;DHT22;12311;50.866;4.332;2023-06-01T05:59:34;13.20;99.90
24152;DHT22;12311;50.866;4.332;2023-06-01T06:02:00;13.30;99.90
24152;DHT22;12311;50.866;4.332;2023-06-01T06:04:26;13.50;99.90
24152;DHT22;12311;50.866;4.332;2023-06-01T06:06:51;13.50;99.90
24152;DHT22;12311;50.866;4.332;2023-06-01T06:09:18;13.60;99.90
24152;DHT22;12311;50.866;4.332;2023-06-01T06:11:43;13.50;99.90
24152;DHT22;12311;50.866;4.332;2023-06-01T06:14:09;13.50;99.90
24152;DHT22;12311;50.866;4.332;2023-06-01T06:16:37;13.50;99.90
24152;DHT22;12311;50.866;4.332;2023-06-01T06:19:02;13.70;99.90
24152;DHT22;12311;50.866;4.332;2023-06-01T06:21:28;13.80;99.90
24152;DHT22;12311;50.866;4.332;2023-06-01T06:23:54;13.90;99.90
24152;DHT22;12311;50.866;4.332;2023-06-01T06:26:25;14.00;99.90
24152;DHT22;12311;50.866;4.332;2023-06-01T06:28:51;14.30;99.90
24152;DHT22;12311;50.866;4.332;2023-06-01T06:31:17;14.50;99.90
24152;DHT22;12311;50.866;4.332;2023-06-01T06:33:42;14.90;99.90
24152;DHT22;12311;50.866;4.332;2023-06-01T06:36:08;15.00;99.90
24152;DHT22;12311;50.866;4.332;2023-06-01T06:38:34;15.20;99.90
24152;DHT22;12311;50.866;4.332;2023-06-01T06:41:00;15.20;99.90
24152;DHT22;12311;50.866;4.332;2023-06-01T06:43:26;15.40;99.90
24152;DHT22;12311;50.866;4.332;2023-06-01T06:45:51;15.50;99.90
24152;DHT22;12311;50.866;4.332;2023-06-01T06:48:17;15.40;99.90
24152;DHT22;12311;50.866;4.332;2023-06-01T06:50:42;15.50;99.90
24152;DHT22;12311;50.866;4.332;2023-06-01T06:53:10;15.70;99.90
24152;DHT22;12311;50.866;4.332;2023-06-01T06:55:36;16.00;99.90
24152;DHT22;12311;50.866;4.332;2023-06-01T06:58:02;16.10;99.90
24152;DHT22;12311;50.866;4.332;2023-06-01T07:00:28;15.90;99.90
24152;DHT22;12311;50.866;4.332;2023-06-01T07:02:54;16.00;99.90
24152;DHT22;12311;50.866;4.332;2023-06-01T07:05:20;16.00;99.90
24152;DHT22;12311;50.866;4.332;2023-06-01T07:07:46;15.90;99.90
24152;DHT22;12311;50.866;4.332;2023-06-01T07:10:12;15.70;99.90
24152;DHT22;12311;50.866;4.332;2023-06-01T07:12:38;15.70;99.90
24152;DHT22;12311;50.866;4.332;2023-06-01T07:15:04;15.80;99.90
24152;DHT22;12311;50.866;4.332;2023-06-01T07:17:30;16.20;99.90
24152;DHT22;12311;50.866;4.332;2023-06-01T07:19:56;16.20;99.90
24152;DHT22;12311;50.866;4.332;2023-06-01T07:22:22;16.30;99.90
24152;DHT22;12311;50.866;4.332;2023-06-01T07:24:48;16.40;99.90
24152;DHT22;12311;50.866;4.332;2023-06-01T07:27:14;16.40;99.90
24152;DHT22;12311;50.866;4.332;2023-06-01T07:29:40;16.50;99.90
24152;DHT22;12311;50.866;4.332;2023-06-01T07:32:06;16.40;99.90
24152;DHT22;12311;50.866;4.332;2023-06-01T07:34:32;16.40;99.90
24152;DHT22;12311;50.866;4.332;2023-06-01T07:37:01;16.50;99.90
24152;DHT22;12311;50.866;4.332;2023-06-01T07:39:27;16.50;99.90
24152;DHT22;12311;50.866;4.332;2023-06-01T07:41:53;16.40;99.90
24152;DHT22;12311;50.866;4.332;2023-06-01T07:44:19;16.50;99.90
24152;DHT22;12311;50.866;4.332;2023-06-01T07:46:46;16.60;99.90
24152;DHT22;12311;50.866;4.332;2023-06-01T07:49:13;16.90;99.90
24152;DHT22;12311;50.866;4.332;2023-06-01T07:51:40;16.90;99.90
24152;DHT22;12311;50.866;4.332;2023-06-01T07:54:05;16.60;99.90
24152;DHT22;12311;50.866;4.332;2023-06-01T07:56:32;16.60;99.90
24152;DHT22;12311;50.866;4.332;2023-06-01T07:58:57;16.50;99.90
24152;DHT22;12311;50.866;4.332;2023-06-01T08:01:23;16.50;99.90
24152;DHT22;12311;50.866;4.332;2023-06-01T08:03:49;16.50;99.90
24152;DHT22;12311;50.866;4.332;2023-06-01T08:06:15;16.50;99.90
24152;DHT22;12311;50.866;4.332;2023-06-01T08:08:41;16.40;99.90
24152;DHT22;12311;50.866;4.332;2023-06-01T08:11:08;16.40;99.90
24152;DHT22;12311;50.866;4.332;2023-06-01T08:13:34;16.30;99.90
24152;DHT22;12311;50.866;4.332;2023-06-01T08:16:03;16.20;99.90
24152;DHT22;12311;50.866;4.332;2023-06-01T08:18:30;16.50;99.90
24152;DHT22;12311;50.866;4.332;2023-06-01T08:20:56;16.50;99.90
24152;DHT22;12311;50.866;4.332;2023-06-01T08:23:21;16.60;99.90
24152;DHT22;12311;50.866;4.332;2023-06-01T08:25:50;16.70;99.90
24152;DHT22;12311;50.866;4.332;2023-06-01T08:28:16;17.00;99.90
24152;DHT22;12311;50.866;4.332;2023-06-01T08:30:41;17.10;99.90
24152;DHT22;12311;50.866;4.332;2023-06-01T08:33:07;17.20;99.90
24152;DHT22;12311;50.866;4.332;2023-06-01T08:35:33;17.10;99.90
24152;DHT22;12311;50.866;4.332;2023-06-01T08:38:02;17.30;99.90
24152;DHT22;12311;50.866;4.332;2023-06-01T08:40:30;17.30;99.90
24152;DHT22;12311;50.866;4.332;2023-06-01T08:43:12;17.30;99.90
24152;DHT22;12311;50.866;4.332;2023-06-01T08:45:40;17.40;99.90
24152;DHT22;12311;50.866;4.332;2023-06-01T08:48:07;17.60;99.90
24152;DHT22;12311;50.866;4.332;2023-06-01T08:50:34;17.60;99.90
24152;DHT22;12311;50.866;4.332;2023-06-01T08:53:01;17.70;99.90
24152;DHT22;12311;50.866;4.332;2023-06-01T08:55:27;17.60;99.90
24152;DHT22;12311;50.866;4.332;2023-06-01T08:57:53;17.70;99.90
24152;DHT22;12311;50.866;4.332;2023-06-01T09:00:20;17.70;99.90
24152;DHT22;12311;50.866;4.332;2023-06-01T09:02:46;17.70;99.90
24152;DHT22;12311;50.866;4.332;2023-06-01T09:05:12;17.70;99.90
24152;DHT22;12311;50.866;4.332;2023-06-01T09:07:39;17.70;99.90
24152;DHT22;12311;50.866;4.332;2023-06-01T09:10:06;17.70;99.90
24152;DHT22;12311;50.866;4.332;2023-06-01T09:12:32;17.60;99.90
24152;DHT22;12311;50.866;4.332;2023-06-01T09:15:15;17.60;99.90
24152;DHT22;12311;50.866;4.332;2023-06-01T09:17:43;17.60;99.90
24152;DHT22;12311;50.866;4.332;2023-06-01T09:20:25;17.80;99.90
24152;DHT22;12311;50.866;4.332;2023-06-01T09:22:52;17.80;99.90
24152;DHT22;12311;50.866;4.332;2023-06-01T09:25:28;17.90;99.90
24152;DHT22;12311;50.866;4.332;2023-06-01T09:27:55;18.10;99.90
24152;DHT22;12311;50.866;4.332;2023-06-01T09:30:23;18.20;99.90
24152;DHT22;12311;50.866;4.332;2023-06-01T09:32:49;18.40;99.90
24152;DHT22;12311;50.866;4.332;2023-06-01T09:35:38;18.70;99.90
24152;DHT22;12311;50.866;4.332;2023-06-01T09:38:04;19.20;99.90
24152;DHT22;12311;50.866;4.332;2023-06-01T09:40:32;19.40;99.90
24152;DHT22;12311;50.866;4.332;2023-06-01T09:42:59;19.80;99.90
24152;DHT22;12311;50.866;4.332;2023-06-01T09:45:25;20.10;99.90
24152;DHT22;12311;50.866;4.332;2023-06-01T09:47:52;20.50;99.90
24152;DHT22;12311;50.866;4.332;2023-06-01T09:50:38;20.80;99.90
24152;DHT22;12311;50.866;4.332;2023-06-01T09:53:04;21.20;99.90
24152;DHT22;12311;50.866;4.332;2023-06-01T09:55:31;21.40;99.90
24152;DHT22;12311;50.866;4.332;2023-06-01T09:58:16;22.00;99.90
24152;DHT22;12311;50.866;4.332;2023-06-01T10:00:42;22.60;99.90
24152;DHT22;12311;50.866;4.332;2023-06-01T10:03:09;23.10;99.90
24152;DHT22;12311;50.866;4.332;2023-06-01T10:05:35;23.80;99.90
24152;DHT22;12311;50.866;4.332;2023-06-01T10:08:01;24.10;99.90
24152;DHT22;12311;50.866;4.332;2023-06-01T10:10:28;23.70;99.90
24152;DHT22;12311;50.866;4.332;2023-06-01T10:12:54;23.80;99.90
24152;DHT22;12311;50.866;4.332;2023-06-01T10:15:20;23.90;99.90
24152;DHT22;12311;50.866;4.332;2023-06-01T10:17:46;24.40;99.90
24152;DHT22;12311;50.866;4.332;2023-06-01T10:20:14;23.90;99.90
24152;DHT22;12311;50.866;4.332;2023-06-01T10:22:41;24.00;99.90
24152;DHT22;12311;50.866;4.332;2023-06-01T10:25:09;24.70;99.90
24152;DHT22;12311;50.866;4.332;2023-06-01T10:27:40;24.80;99.90
24152;DHT22;12311;50.866;4.332;2023-06-01T10:30:07;24.70;99.90
24152;DHT22;12311;50.866;4.332;2023-06-01T10:35:05;25.10;99.10
24152;DHT22;12311;50.866;4.332;2023-06-01T10:37:31;25.20;98.90
24152;DHT22;12311;50.866;4.332;2023-06-01T10:42:45;25.10;96.30
24152;DHT22;12311;50.866;4.332;2023-06-01T10:45:39;25.60;96.10
24152;DHT22;12311;50.866;4.332;2023-06-01T10:48:10;26.10;92.40
24152;DHT22;12311;50.866;4.332;2023-06-01T10:50:41;26.50;91.90
24152;DHT22;12311;50.866;4.332;2023-06-01T10:53:30;26.90;91.30
24152;DHT22;12311;50.866;4.332;2023-06-01T10:56:18;26.20;91.30
24152;DHT22;12311;50.866;4.332;2023-06-01T11:01:38;26.00;91.90
24152;DHT22;12311;50.866;4.332;2023-06-01T11:04:04;26.20;91.10
24152;DHT22;12311;50.866;4.332;2023-06-01T11:06:32;26.20;91.10
24152;DHT22;12311;50.866;4.332;2023-06-01T11:09:00;26.70;90.70
24152;DHT22;12311;50.866;4.332;2023-06-01T11:12:07;27.00;86.00
24152;DHT22;12311;50.866;4.332;2023-06-01T11:14:31;26.70;85.30
24152;DHT22;12311;50.866;4.332;2023-06-01T11:17:27;26.10;88.60
24152;DHT22;12311;50.866;4.332;2023-06-01T11:19:58;26.80;90.30
24152;DHT22;12311;50.866;4.332;2023-06-01T11:22:24;26.40;86.10
24152;DHT22;12311;50.866;4.332;2023-06-01T11:24:51;27.30;85.70
24152;DHT22;12311;50.866;4.332;2023-06-01T11:27:20;28.30;83.80
24152;DHT22;12311;50.866;4.332;2023-06-01T11:29:48;29.50;75.40
24152;DHT22;12311;50.866;4.332;2023-06-01T11:32:15;30.20;70.20
24152;DHT22;12311;50.866;4.332;2023-06-01T11:34:41;30.00;66.70
24152;DHT22;12311;50.866;4.332;2023-06-01T11:37:17;29.40;66.00
24152;DHT22;12311;50.866;4.332;2023-06-01T11:39:44;30.00;66.20
24152;DHT22;12311;50.866;4.332;2023-06-01T11:42:16;30.00;63.70
24152;DHT22;12311;50.866;4.332;2023-06-01T11:44:42;30.00;63.70
24152;DHT22;12311;50.866;4.332;2023-06-01T11:47:10;30.60;61.70
24152;DHT22;12311;50.866;4.332;2023-06-01T11:49:47;30.80;61.30
24152;DHT22;12311;50.866;4.332;2023-06-01T11:52:13;30.70;62.00
24152;DHT22;12311;50.866;4.332;2023-06-01T11:54:39;31.30;60.80
24152;DHT22;12311;50.866;4.332;2023-06-01T11:57:06;32.00;59.10
24152;DHT22;12311;50.866;4.332;2023-06-01T11:59:42;31.70;57.20
24152;DHT22;12311;50.866;4.332;2023-06-01T12:02:21;31.70;56.30
24152;DHT22;12311;50.866;4.332;2023-06-01T12:05:03;31.30;56.90
24152;DHT22;12311;50.866;4.332;2023-06-01T12:07:50;32.10;56.30
24152;DHT22;12311;50.866;4.332;2023-06-01T12:10:19;32.00;53.90
24152;DHT22;12311;50.866;4.332;2023-06-01T12:12:46;31.90;54.30
24152;DHT22;12311;50.866;4.332;2023-06-01T12:15:14;31.90;52.50
24152;DHT22;12311;50.866;4.332;2023-06-01T12:17:54;31.90;51.10
24152;DHT22;12311;50.866;4.332;2023-06-01T12:20:30;32.10;51.80
24152;DHT22;12311;50.866;4.332;2023-06-01T12:23:00;32.50;51.20
24152;DHT22;12311;50.866;4.332;2023-06-01T12:25:29;33.20;50.10
24152;DHT22;12311;50.866;4.332;2023-06-01T12:28:06;32.70;49.20
24152;DHT22;12311;50.866;4.332;2023-06-01T12:30:33;32.60;50.60
24152;DHT22;12311;50.866;4.332;2023-06-01T12:32:59;33.20;50.10
24152;DHT22;12311;50.866;4.332;2023-06-01T12:35:26;34.10;48.70
24152;DHT22;12311;50.866;4.332;2023-06-01T12:38:09;33.50;47.90
24152;DHT22;12311;50.866;4.332;2023-06-01T12:40:36;34.20;48.20
24152;DHT22;12311;50.866;4.332;2023-06-01T12:43:02;34.70;47.70
24152;DHT22;12311;50.866;4.332;2023-06-01T12:45:35;35.00;47.00
24152;DHT22;12311;50.866;4.332;2023-06-01T12:48:05;34.90;47.20
24152;DHT22;12311;50.866;4.332;2023-06-01T12:50:31;35.30;46.40
24152;DHT22;12311;50.866;4.332;2023-06-01T12:52:56;35.00;43.80
24152;DHT22;12311;50.866;4.332;2023-06-01T12:55:23;34.50;44.40
24152;DHT22;12311;50.866;4.332;2023-06-01T12:57:52;34.40;45.30
24152;DHT22;12311;50.866;4.332;2023-06-01T13:00:19;34.20;45.60
24152;DHT22;12311;50.866;4.332;2023-06-01T13:02:45;34.30;46.30
24152;DHT22;12311;50.866;4.332;2023-06-01T13:05:15;33.70;45.30
24152;DHT22;12311;50.866;4.332;2023-06-01T13:07:44;33.90;44.80
24152;DHT22;12311;50.866;4.332;2023-06-01T13:10:11;34.30;44.90
24152;DHT22;12311;50.866;4.332;2023-06-01T13:12:38;33.50;45.60
24152;DHT22;12311;50.866;4.332;2023-06-01T13:15:06;33.30;46.10
24152;DHT22;12311;50.866;4.332;2023-06-01T13:17:32;32.80;46.90
24152;DHT22;12311;50.866;4.332;2023-06-01T13:19:57;34.10;46.20
24152;DHT22;12311;50.866;4.332;2023-06-01T13:22:23;35.20;44.00
24152;DHT22;12311;50.866;4.332;2023-06-01T13:24:49;34.60;43.70
24152;DHT22;12311;50.866;4.332;2023-06-01T13:27:14;34.80;44.50
24152;DHT22;12311;50.866;4.332;2023-06-01T13:29:40;35.90;43.10
24152;DHT22;12311;50.866;4.332;2023-06-01T13:32:07;35.00;42.00
24152;DHT22;12311;50.866;4.332;2023-06-01T13:34:33;34.80;43.70
24152;DHT22;12311;50.866;4.332;2023-06-01T13:36:58;34.90;44.40
24152;DHT22;12311;50.866;4.332;2023-06-01T13:39:24;35.80;43.10
24152;DHT22;12311;50.866;4.332;2023-06-01T13:41:50;36.10;42.40
24152;DHT22;12311;50.866;4.332;2023-06-01T13:44:16;36.00;41.80
24152;DHT22;12311;50.866;4.332;2023-06-01T13:46:43;37.10;41.50
24152;DHT22;12311;50.866;4.332;2023-06-01T13:49:09;37.60;40.80
24152;DHT22;12311;50.866;4.332;2023-06-01T13:51:35;37.50;40.70
24152;DHT22;12311;50.866;4.332;2023-06-01T13:54:04;36.30;41.30
24152;DHT22;12311;50.866;4.332;2023-06-01T13:56:30;36.10;42.30
24152;DHT22;12311;50.866;4.332;2023-06-01T13:58:56;36.30;42.10
24152;DHT22;12311;50.866;4.332;2023-06-01T14:01:21;37.30;41.60
24152;DHT22;12311;50.866;4.332;2023-06-01T14:03:47;37.40;40.70
24152;DHT22;12311;50.866;4.332;2023-06-01T14:06:13;37.80;40.20
24152;DHT22;12311;50.866;4.332;2023-06-01T14:08:39;37.20;39.80
24152;DHT22;12311;50.866;4.332;2023-06-01T14:11:05;37.00;40.20
24152;DHT22;12311;50.866;4.332;2023-06-01T14:13:31;37.50;39.70
24152;DHT22;12311;50.866;4.332;2023-06-01T14:15:57;37.10;38.90
24152;DHT22;12311;50.866;4.332;2023-06-01T14:18:23;36.90;39.60
24152;DHT22;12311;50.866;4.332;2023-06-01T14:20:49;37.30;39.60
24152;DHT22;12311;50.866;4.332;2023-06-01T14:23:15;37.90;38.60
24152;DHT22;12311;50.866;4.332;2023-06-01T14:25:41;37.70;39.70
24152;DHT22;12311;50.866;4.332;2023-06-01T14:28:06;37.70;38.80
24152;DHT22;12311;50.866;4.332;2023-06-01T14:30:32;37.20;38.80
24152;DHT22;12311;50.866;4.332;2023-06-01T14:32:59;37.20;39.40
24152;DHT22;12311;50.866;4.332;2023-06-01T14:35:25;38.10;38.10
24152;DHT22;12311;50.866;4.332;2023-06-01T14:37:52;37.00;38.90
24152;DHT22;12311;50.866;4.332;2023-06-01T14:40:18;36.80;38.20
24152;DHT22;12311;50.866;4.332;2023-06-01T14:42:44;36.10;39.50
24152;DHT22;12311;50.866;4.332;2023-06-01T14:45:10;36.40;39.90
24152;DHT22;12311;50.866;4.332;2023-06-01T14:47:37;37.60;39.10
24152;DHT22;12311;50.866;4.332;2023-06-01T14:50:03;36.50;38.50
24152;DHT22;12311;50.866;4.332;2023-06-01T14:52:29;36.20;39.40
24152;DHT22;12311;50.866;4.332;2023-06-01T14:54:55;35.90;39.40
24152;DHT22;12311;50.866;4.332;2023-06-01T14:57:21;35.70;39.90
24152;DHT22;12311;50.866;4.332;2023-06-01T14:59:47;35.30;40.30
24152;DHT22;12311;50.866;4.332;2023-06-01T15:02:12;34.60;41.20
24152;DHT22;12311;50.866;4.332;2023-06-01T15:04:38;34.40;41.00
24152;DHT22;12311;50.866;4.332;2023-06-01T15:07:04;35.00;41.30
24152;DHT22;12311;50.866;4.332;2023-06-01T15:09:30;35.30;41.30
24152;DHT22;12311;50.866;4.332;2023-06-01T15:11:55;35.00;41.80
24152;DHT22;12311;50.866;4.332;2023-06-01T15:14:22;34.60;42.30
24152;DHT22;12311;50.866;4.332;2023-06-01T15:16:48;34.40;43.00
24152;DHT22;12311;50.866;4.332;2023-06-01T15:19:13;33.80;43.60
24152;DHT22;12311;50.866;4.332;2023-06-01T15:21:39;33.00;44.90
24152;DHT22;12311;50.866;4.332;2023-06-01T15:24:05;33.50;44.30
24152;DHT22;12311;50.866;4.332;2023-06-01T15:26:31;33.80;43.70
24152;DHT22;12311;50.866;4.332;2023-06-01T15:28:57;33.40;43.80
24152;DHT22;12311;50.866;4.332;2023-06-01T15:31:22;32.70;44.30
24152;DHT22;12311;50.866;4.332;2023-06-01T15:33:48;32.10;45.60
24152;DHT22;12311;50.866;4.332;2023-06-01T15:36:14;30.90;47.10
24152;DHT22;12311;50.866;4.332;2023-06-01T15:38:42;31.10;47.30
24152;DHT22;12311;50.866;4.332;2023-06-01T15:41:08;30.80;47.70
24152;DHT22;12311;50.866;4.332;2023-06-01T15:43:35;30.40;49.30
24152;DHT22;12311;50.866;4.332;2023-06-01T15:46:04;30.10;48.60
24152;DHT22;12311;50.866;4.332;2023-06-01T15:48:30;29.50;49.80
24152;DHT22;12311;50.866;4.332;2023-06-01T15:50:56;29.20;51.50
24152;DHT22;12311;50.866;4.332;2023-06-01T15:53:22;28.80;51.70
24152;DHT22;12311;50.866;4.332;2023-06-01T15:55:48;28.70;52.00
24152;DHT22;12311;50.866;4.332;2023-06-01T15:58:14;28.90;52.10